Airfield :
LOGIN :

Register | Disclaimer

   EN    FR    IT 

 










Legend :    VFR   Marginal VFR   IFR   Intensive IFR   Very Intensive IFR
Visi :
Ceiling :
>= 8 km
>= 3000ft
5 to 8 km
1000 to 3000 ft
1500m to 5 km
500 to 1000 ft
800 to 1500m
200 to 500 ft
< 800m
< 200 ft
Symbols :   Thunderstorms  Fog  Heavy snow  Heavy precipitations  Wind > 20 kt
SIGMETs :     Misc.  Thunderstorms  Icing  Turbulence  Mountain Waves  Volcanic Ashes






- Airport Elevation : 433 ft
- IATA code : CCF


LFMK - Carcassonne

CURRENT METAR :
  • 021200Z AUTO VRB02KT 9999 SCT021 08/03 Q1016 NOSIG

EXPIRED METARs :
  • 021130Z AUTO 28003KT 240V340 9999 BKN021 08/03 Q1017 NOSIG
  • 021100Z AUTO 27004KT 190V320 9999 OVC020 08/03 Q1017 NOSIG
  • 021030Z AUTO 23004KT 170V280 9999 OVC020 08/03 Q1017 NOSIG
  • 021000Z AUTO 23005KT 170V290 9999 OVC020 07/02 Q1018 NOSIG
  • 020930Z AUTO 23005KT 160V270 9999 OVC019 07/03 Q1018 NOSIG

TAF TAF LFMK
Valid from the 02 at 09:00 until the 03 at 09:00 UTC


020800Z 0209/0309 27005KT 9999 OVC020
BECMG 0212/0214 SCT020
BECMG 0214/0216 CAVOK
BECMG 0219/0221 VRB03KT
TEMPO 0220/0304 BKN017
BECMG 0306/0308 BKN020



MET'MAP, your aeronautical weather chart ! - Copyright ORBIFLY December 2007 - Disclaimer

ORBIFLY MET'MAP TEAM :

Programming & Development : Alexandra Zaïnal
Original concept : Baudouin d'Aumeries
Technical & hardware support : Manuel Goepfert
Assistance : Marc-Olivier Méhu




SOURCES & CREDITS :

   NOAA